Time;durP1;ratioP1;P1;durP2;ratioP2;P2;SDS_P1;SDS_P2;PMS_P1;PMS_P2;Temp;Humidity;BMP_temperature;BMP_pressure;BME280_temperature;BME280_humidity;BME280_pressure;Samples;Min_cycle;Max_cycle;Signal;HPM_P1;HPM_P2
2023/08/16 00:00:27;;;;;;;4.67;4.37;;;24.00;99.90;;;;;;5034878;28;20464;-79
2023/08/16 00:02:55;;;;;;;5.60;5.20;;;24.10;99.90;;;;;;5035090;28;20464;-81
2023/08/16 00:05:29;;;;;;;5.77;5.13;;;24.10;99.90;;;;;;5036233;28;20460;-79
2023/08/16 00:10:59;;;;;;;5.77;5.27;;;24.00;99.90;;;;;;5013742;28;20464;-80
2023/08/16 00:13:31;;;;;;;5.37;5.07;;;24.00;99.90;;;;;;5033645;28;20504;-78
2023/08/16 00:15:58;;;;;;;5.13;4.83;;;24.00;99.90;;;;;;5035000;28;20558;-79
2023/08/16 00:18:25;;;;;;;7.80;7.20;;;24.00;99.90;;;;;;5034443;28;20494;-79
2023/08/16 00:20:51;;;;;;;7.00;6.40;;;24.00;99.90;;;;;;5034212;28;20555;-81
2023/08/16 00:23:20;;;;;;;6.20;5.70;;;24.00;99.90;;;;;;5034452;28;20529;-81
2023/08/16 00:25:47;;;;;;;6.50;6.00;;;23.90;99.90;;;;;;5033430;28;20476;-81
2023/08/16 00:28:14;;;;;;;5.40;5.10;;;24.00;99.90;;;;;;5034150;28;20472;-81
2023/08/16 00:30:41;;;;;;;5.93;5.43;;;24.00;99.90;;;;;;5033713;28;20474;-82
2023/08/16 00:33:08;;;;;;;5.57;5.13;;;24.00;99.90;;;;;;5033472;28;20540;-81
2023/08/16 00:35:35;;;;;;;4.50;4.20;;;24.00;99.90;;;;;;5034370;28;20468;-81
2023/08/16 00:38:01;;;;;;;4.70;4.40;;;24.00;99.90;;;;;;5033713;28;20555;-79
2023/08/16 00:40:31;;;;;;;5.20;4.80;;;24.00;99.90;;;;;;5033583;28;20471;-79
2023/08/16 00:42:58;;;;;;;5.43;5.03;;;24.00;99.90;;;;;;5033259;28;20468;-79
2023/08/16 00:45:25;;;;;;;4.97;4.67;;;24.00;99.90;;;;;;5033439;28;20476;-79
2023/08/16 00:47:52;;;;;;;4.23;3.93;;;23.90;99.90;;;;;;5032598;28;20468;-80
2023/08/16 00:50:24;;;;;;;4.50;4.20;;;23.90;99.90;;;;;;5033758;28;20499;-80
2023/08/16 00:52:52;;;;;;;5.17;4.67;;;23.90;99.90;;;;;;5033385;28;20464;-80
2023/08/16 00:55:19;;;;;;;4.17;3.87;;;23.90;99.90;;;;;;5035626;28;21020;-81
2023/08/16 00:57:48;;;;;;;4.00;3.63;;;23.90;99.90;;;;;;5034315;28;20583;-79
2023/08/16 01:00:16;;;;;;;5.27;4.87;;;23.90;99.90;;;;;;5033383;28;20543;-80
2023/08/16 01:02:42;;;;;;;4.80;4.30;;;23.90;99.90;;;;;;5034131;28;20496;-79
2023/08/16 01:05:10;;;;;;;4.30;3.90;;;23.90;99.90;;;;;;5032938;28;21068;-79
2023/08/16 01:07:37;;;;;;;4.10;3.53;;;23.90;99.90;;;;;;5033379;28;20464;-79
2023/08/16 01:10:04;;;;;;;5.40;5.00;;;23.80;99.90;;;;;;5033016;28;20472;-79
2023/08/16 01:12:36;;;;;;;4.47;4.17;;;23.80;99.90;;;;;;5033496;28;20460;-79
2023/08/16 01:15:13;;;;;;;4.80;4.33;;;23.80;99.90;;;;;;5032984;28;20568;-79
2023/08/16 01:17:42;;;;;;;4.37;4.00;;;23.80;99.90;;;;;;5033275;28;20983;-79
2023/08/16 01:20:11;;;;;;;5.20;4.80;;;23.80;99.90;;;;;;5032729;28;20464;-79
2023/08/16 01:22:48;;;;;;;4.73;4.33;;;23.80;99.90;;;;;;5033293;28;20506;-80
2023/08/16 01:25:26;;;;;;;5.70;5.30;;;23.80;99.90;;;;;;5032509;28;20464;-80
2023/08/16 01:27:55;;;;;;;4.30;3.90;;;23.80;99.90;;;;;;5032899;28;20476;-81
2023/08/16 01:30:23;;;;;;;5.27;4.77;;;23.70;99.90;;;;;;5033049;28;20472;-79
2023/08/16 01:32:50;;;;;;;4.30;4.00;;;23.70;99.90;;;;;;5033291;28;20533;-79
2023/08/16 01:35:17;;;;;;;4.40;4.10;;;23.70;99.90;;;;;;5032745;28;20555;-80
2023/08/16 01:37:45;;;;;;;5.73;5.33;;;23.70;99.90;;;;;;5033122;28;20972;-81
2023/08/16 01:40:12;;;;;;;5.30;4.80;;;23.70;99.90;;;;;;5032523;28;20472;-81
2023/08/16 01:42:44;;;;;;;5.33;5.03;;;23.60;99.90;;;;;;5033004;28;20511;-79
2023/08/16 01:45:15;;;;;;;6.40;5.87;;;23.60;99.90;;;;;;5032560;28;20547;-78
2023/08/16 01:47:43;;;;;;;5.87;5.40;;;23.60;99.90;;;;;;5033121;28;20587;-79
2023/08/16 01:50:10;;;;;;;5.97;5.53;;;23.60;99.90;;;;;;5032317;28;20475;-80
2023/08/16 01:52:37;;;;;;;5.43;5.03;;;23.60;99.90;;;;;;5034068;28;20479;-81
2023/08/16 01:55:05;;;;;;;6.30;5.80;;;23.60;99.90;;;;;;5036158;28;20476;-81
2023/08/16 01:57:32;;;;;;;5.60;5.20;;;23.60;99.90;;;;;;5036998;28;20980;-81
2023/08/16 01:59:59;;;;;;;5.73;5.33;;;23.50;99.90;;;;;;5036340;28;20472;-80
2023/08/16 02:02:27;;;;;;;5.90;5.50;;;23.50;99.90;;;;;;5036814;28;20530;-81
2023/08/16 02:04:54;;;;;;;5.63;5.23;;;23.50;99.90;;;;;;5037032;28;20474;-82
2023/08/16 02:07:21;;;;;;;7.77;6.10;;;23.50;99.90;;;;;;5036649;28;20958;-81
2023/08/16 02:09:48;;;;;;;6.40;5.90;;;23.50;99.90;;;;;;5036884;28;20479;-79
2023/08/16 02:12:15;;;;;;;6.57;5.97;;;23.50;99.90;;;;;;5035934;28;20468;-79
2023/08/16 02:14:42;;;;;;;6.60;6.10;;;23.40;99.90;;;;;;5036704;28;20502;-82
2023/08/16 02:17:09;;;;;;;6.10;5.70;;;23.40;99.90;;;;;;5035097;28;20502;-81
2023/08/16 02:19:37;;;;;;;6.50;6.00;;;23.40;99.90;;;;;;5036600;28;20471;-82
2023/08/16 02:22:04;;;;;;;5.60;5.10;;;23.40;99.90;;;;;;5035919;28;20551;-81
2023/08/16 02:24:31;;;;;;;5.87;5.40;;;23.40;99.90;;;;;;5036400;28;20490;-79
2023/08/16 02:26:58;;;;;;;6.53;6.00;;;23.30;99.90;;;;;;5036074;28;20555;-81
2023/08/16 02:29:25;;;;;;;6.13;5.73;;;23.30;99.90;;;;;;5036557;28;20502;-81
2023/08/16 02:31:52;;;;;;;5.53;5.13;;;23.30;99.90;;;;;;5036400;28;20962;-82
2023/08/16 02:34:19;;;;;;;6.50;6.00;;;23.30;99.90;;;;;;5036046;28;20464;-79
2023/08/16 02:36:47;;;;;;;6.03;5.63;;;23.30;99.90;;;;;;5035327;28;20555;-81
2023/08/16 02:39:14;;;;;;;5.43;5.03;;;23.30;99.90;;;;;;5035759;28;20810;-79
2023/08/16 02:41:41;;;;;;;6.10;5.70;;;23.30;99.90;;;;;;5036243;28;20490;-79
2023/08/16 02:44:08;;;;;;;5.70;5.30;;;23.30;99.90;;;;;;5035693;28;20468;-81
2023/08/16 02:46:35;;;;;;;6.00;5.50;;;23.30;99.90;;;;;;5027574;28;20562;-80
2023/08/16 02:49:02;;;;;;;6.60;6.00;;;23.20;99.90;;;;;;5036229;28;20532;-81
2023/08/16 02:51:29;;;;;;;6.23;5.73;;;23.20;99.90;;;;;;5033933;28;20460;-78
2023/08/16 02:53:58;;;;;;;7.63;6.13;;;23.20;99.90;;;;;;5035424;28;20470;-81
2023/08/16 02:56:25;;;;;;;6.57;6.10;;;23.20;99.90;;;;;;5035166;28;25287;-80
2023/08/16 02:58:52;;;;;;;7.47;6.97;;;23.20;99.90;;;;;;5035759;28;20475;-80
2023/08/16 03:01:19;;;;;;;7.70;7.10;;;23.20;99.90;;;;;;5035161;28;20472;-81
2023/08/16 03:03:48;;;;;;;6.47;5.87;;;23.20;99.90;;;;;;5034871;28;20495;-80
2023/08/16 03:06:15;;;;;;;7.23;6.63;;;23.20;99.90;;;;;;5034804;28;20506;-79
2023/08/16 03:08:42;;;;;;;7.97;7.27;;;23.20;99.90;;;;;;5035508;28;20472;-78
2023/08/16 03:11:10;;;;;;;8.60;7.90;;;23.20;99.90;;;;;;5035021;28;20469;-81
2023/08/16 03:13:41;;;;;;;7.70;7.10;;;23.20;99.90;;;;;;5035320;28;20502;-79
2023/08/16 03:16:08;;;;;;;8.10;7.40;;;23.30;99.90;;;;;;5035051;28;20989;-79
2023/08/16 03:18:34;;;;;;;8.03;7.23;;;23.30;99.90;;;;;;5035501;28;20550;-79
2023/08/16 03:21:01;;;;;;;8.00;7.40;;;23.30;99.90;;;;;;5035378;28;20522;-80
2023/08/16 03:23:28;;;;;;;8.40;7.70;;;23.30;99.90;;;;;;5034850;28;20475;-79
2023/08/16 03:25:55;;;;;;;10.10;9.27;;;23.30;99.90;;;;;;5035119;28;20509;-79
2023/08/16 03:28:24;;;;;;;8.77;8.17;;;23.30;99.90;;;;;;5034502;28;20472;-79
2023/08/16 03:30:51;;;;;;;8.00;7.40;;;23.30;99.90;;;;;;5035148;28;20551;-80
2023/08/16 03:33:17;;;;;;;8.50;7.90;;;23.30;99.90;;;;;;5034946;28;20499;-78
2023/08/16 03:35:44;;;;;;;9.10;8.40;;;23.30;99.90;;;;;;5035194;28;20494;-79
2023/08/16 03:38:11;;;;;;;11.20;10.30;;;23.30;99.90;;;;;;5034406;28;20551;-79
2023/08/16 03:40:38;;;;;;;10.77;9.57;;;23.30;99.90;;;;;;5035413;28;20542;-80
2023/08/16 03:43:05;;;;;;;8.97;8.33;;;23.30;99.90;;;;;;5034774;28;20559;-78
2023/08/16 03:45:33;;;;;;;9.50;8.70;;;23.30;99.90;;;;;;5034436;28;20793;-78
2023/08/16 03:48:02;;;;;;;10.70;9.80;;;23.30;99.90;;;;;;5034924;28;20510;-78
2023/08/16 03:50:29;;;;;;;11.07;10.17;;;23.20;99.90;;;;;;5034331;28;20538;-80
2023/08/16 03:52:56;;;;;;;8.13;7.53;;;23.20;99.90;;;;;;5034803;28;20480;-79
2023/08/16 03:55:23;;;;;;;11.83;10.73;;;23.20;99.90;;;;;;5034416;28;20553;-79
2023/08/16 03:57:50;;;;;;;11.83;10.90;;;23.20;99.90;;;;;;5034696;28;20495;-79
2023/08/16 04:00:17;;;;;;;12.27;11.10;;;23.20;99.90;;;;;;5034294;28;20499;-81
2023/08/16 04:02:49;;;;;;;11.37;10.47;;;23.20;99.90;;;;;;5034419;28;20975;-81
2023/08/16 04:05:17;;;;;;;9.77;8.97;;;23.20;99.90;;;;;;5033956;28;20489;-81
2023/08/16 04:07:44;;;;;;;9.43;8.73;;;23.20;99.90;;;;;;5034497;28;20460;-80
2023/08/16 04:10:11;;;;;;;9.63;8.83;;;23.20;99.90;;;;;;5034331;28;20476;-79
2023/08/16 04:12:38;;;;;;;12.07;11.07;;;23.20;99.90;;;;;;5033877;28;20480;-79
2023/08/16 04:15:07;;;;;;;10.53;9.67;;;23.20;99.90;;;;;;5034641;28;20487;-79
2023/08/16 04:17:34;;;;;;;11.47;10.47;;;23.20;99.90;;;;;;5033204;28;20992;-78
2023/08/16 04:20:03;;;;;;;10.30;9.43;;;23.20;99.90;;;;;;5034539;28;20472;-79
2023/08/16 04:22:30;;;;;;;12.47;11.27;;;23.20;99.90;;;;;;5033341;28;20557;-78
2023/08/16 04:24:57;;;;;;;11.20;10.30;;;23.20;99.90;;;;;;5033589;28;20496;-80
2023/08/16 04:27:28;;;;;;;11.13;10.23;;;23.20;99.90;;;;;;5033237;28;20516;-81
2023/08/16 04:29:55;;;;;;;10.50;9.53;;;23.20;99.90;;;;;;5033711;28;20468;-79
2023/08/16 04:32:28;;;;;;;10.60;9.70;;;23.10;99.90;;;;;;5033579;28;20962;-81
2023/08/16 04:34:55;;;;;;;10.40;9.60;;;23.10;99.90;;;;;;5034002;28;21035;-79
2023/08/16 04:37:23;;;;;;;11.13;10.00;;;23.20;99.90;;;;;;5033374;28;20555;-82
2023/08/16 04:39:50;;;;;;;10.73;9.83;;;23.10;99.90;;;;;;5034222;28;20468;-79
2023/08/16 04:42:18;;;;;;;9.63;8.83;;;23.20;99.90;;;;;;5023715;28;20530;-81
2023/08/16 04:44:45;;;;;;;10.40;9.50;;;23.10;99.90;;;;;;5032879;28;20464;-81
2023/08/16 04:47:12;;;;;;;11.80;10.67;;;23.20;99.90;;;;;;5033859;28;20464;-82
2023/08/16 04:49:42;;;;;;;10.00;9.20;;;23.20;99.90;;;;;;5033518;28;20551;-79
2023/08/16 04:52:11;;;;;;;9.70;8.90;;;23.20;99.90;;;;;;5033475;28;20507;-79
2023/08/16 04:54:40;;;;;;;10.03;9.23;;;23.20;99.90;;;;;;5032987;28;20803;-79
2023/08/16 04:57:07;;;;;;;9.77;8.97;;;23.20;99.90;;;;;;5033508;28;20551;-79
2023/08/16 04:59:34;;;;;;;11.03;10.20;;;23.20;99.90;;;;;;5032851;28;20543;-79
2023/08/16 05:02:04;;;;;;;10.70;9.80;;;23.20;99.90;;;;;;5033656;28;20972;-79
2023/08/16 05:04:31;;;;;;;13.10;11.77;;;23.20;99.90;;;;;;5032341;28;20476;-79
2023/08/16 05:06:58;;;;;;;10.30;9.43;;;23.20;99.90;;;;;;5033891;28;20790;-79
2023/08/16 05:09:25;;;;;;;11.40;10.30;;;23.20;99.90;;;;;;5032878;28;20465;-79
2023/08/16 05:11:53;;;;;;;11.03;10.03;;;23.20;99.90;;;;;;5033734;28;20856;-81
2023/08/16 05:14:20;;;;;;;11.13;10.23;;;23.20;99.90;;;;;;5033528;28;20547;-81
2023/08/16 05:16:47;;;;;;;10.80;10.00;;;23.10;99.90;;;;;;5033272;28;20518;-81
2023/08/16 05:19:17;;;;;;;11.43;10.53;;;23.20;99.90;;;;;;5033595;28;20476;-82
2023/08/16 05:21:45;;;;;;;10.43;9.63;;;23.20;99.90;;;;;;5032952;28;20460;-81
2023/08/16 05:24:11;;;;;;;11.20;10.20;;;23.20;99.90;;;;;;5032679;28;20495;-82
2023/08/16 05:26:41;;;;;;;11.00;10.10;;;23.20;99.90;;;;;;5031631;28;20561;-79
2023/08/16 05:29:09;;;;;;;11.77;10.70;;;23.20;99.90;;;;;;5033451;28;20464;-80
2023/08/16 05:31:36;;;;;;;11.53;10.63;;;23.20;99.90;;;;;;5032966;28;20848;-81
2023/08/16 05:34:04;;;;;;;11.10;10.20;;;23.20;99.90;;;;;;5033404;28;20538;-81
2023/08/16 05:36:31;;;;;;;11.00;10.20;;;23.20;99.90;;;;;;5032536;28;20481;-82
2023/08/16 05:38:58;;;;;;;13.20;11.90;;;23.20;99.90;;;;;;5033398;28;20487;-81
2023/08/16 05:41:25;;;;;;;12.00;10.87;;;23.20;99.90;;;;;;5033567;28;20468;-81
2023/08/16 05:43:52;;;;;;;11.33;10.33;;;23.20;99.90;;;;;;5032683;28;20464;-80
2023/08/16 05:46:20;;;;;;;13.30;12.20;;;23.20;99.90;;;;;;5033340;28;20472;-81
2023/08/16 05:48:47;;;;;;;11.50;10.50;;;23.20;99.90;;;;;;5032591;28;20472;-81
2023/08/16 05:51:14;;;;;;;9.60;8.90;;;23.10;99.90;;;;;;5033251;28;20542;-82
2023/08/16 05:53:41;;;;;;;11.90;10.80;;;23.10;99.90;;;;;;5032790;28;20488;-82
2023/08/16 05:56:08;;;;;;;13.70;12.53;;;23.20;99.90;;;;;;5033767;28;20500;-81
2023/08/16 05:58:35;;;;;;;13.63;12.40;;;23.20;99.90;;;;;;5033266;28;20491;-82
2023/08/16 06:01:02;;;;;;;12.20;11.20;;;23.30;99.90;;;;;;5035074;28;20475;-82
2023/08/16 06:03:30;;;;;;;13.10;12.03;;;23.20;99.90;;;;;;5033968;28;20469;-82
2023/08/16 06:05:57;;;;;;;13.00;12.00;;;23.30;99.90;;;;;;5034631;28;20460;-82
2023/08/16 06:08:27;;;;;;;13.60;12.40;;;23.30;99.90;;;;;;5034912;28;20827;-82
2023/08/16 06:10:55;;;;;;;15.60;14.00;;;23.40;99.90;;;;;;5034107;28;20445;-80
2023/08/16 06:13:22;;;;;;;14.40;13.20;;;23.50;99.90;;;;;;5034232;28;20467;-82
2023/08/16 06:15:50;;;;;;;14.07;12.87;;;23.50;99.90;;;;;;5034022;28;20472;-82
2023/08/16 06:18:17;;;;;;;14.37;13.17;;;23.50;99.90;;;;;;5034646;28;20551;-78
2023/08/16 06:20:46;;;;;;;13.83;12.63;;;23.50;99.90;;;;;;5033837;28;20534;-78
2023/08/16 06:23:12;;;;;;;16.07;14.00;;;23.60;99.90;;;;;;5033433;28;21020;-78
2023/08/16 06:25:39;;;;;;;14.60;13.27;;;23.60;99.90;;;;;;5033069;28;20476;-80
2023/08/16 06:28:08;;;;;;;13.17;12.07;;;23.60;99.90;;;;;;5033905;28;20464;-81
2023/08/16 06:30:35;;;;;;;13.00;11.90;;;23.60;99.90;;;;;;5024560;28;20528;-80
2023/08/16 06:33:02;;;;;;;11.03;9.93;;;23.70;99.90;;;;;;5023889;28;20882;-80
2023/08/16 06:35:29;;;;;;;11.30;10.50;;;23.80;99.90;;;;;;5033575;28;20543;-81
2023/08/16 06:37:58;;;;;;;11.03;10.13;;;23.80;99.90;;;;;;5033855;28;20467;-81
2023/08/16 06:40:32;;;;;;;10.80;9.80;;;23.90;99.90;;;;;;5035075;28;20811;-81
2023/08/16 06:42:59;;;;;;;10.77;9.87;;;23.90;99.90;;;;;;5036765;28;20468;-82
2023/08/16 06:45:29;;;;;;;10.07;9.37;;;24.00;99.90;;;;;;5036340;28;20506;-80
2023/08/16 06:47:59;;;;;;;10.20;9.40;;;24.00;99.90;;;;;;5036718;28;20468;-79
2023/08/16 06:50:29;;;;;;;8.97;8.27;;;24.10;99.90;;;;;;5036921;28;20502;-79
2023/08/16 06:52:58;;;;;;;8.83;8.03;;;24.20;99.90;;;;;;5025498;28;20533;-79
2023/08/16 06:58:47;;;;;;;8.43;7.63;;;24.30;99.90;;;;;;5035561;28;20460;-79
2023/08/16 07:01:27;;;;;;;7.83;7.23;;;24.30;99.90;;;;;;5036802;28;20463;-78
2023/08/16 07:03:54;;;;;;;8.43;7.83;;;24.30;99.90;;;;;;5035408;28;20862;-79
2023/08/16 07:06:21;;;;;;;7.87;7.30;;;24.40;99.90;;;;;;5026212;28;20483;-79
2023/08/16 07:08:50;;;;;;;8.53;7.73;;;24.50;99.90;;;;;;5034818;28;20511;-80
2023/08/16 07:11:17;;;;;;;9.00;7.80;;;24.50;99.90;;;;;;5036924;28;20479;-79
2023/08/16 07:13:44;;;;;;;8.67;7.97;;;24.60;99.90;;;;;;5035293;28;20472;-79
2023/08/16 07:16:12;;;;;;;7.60;7.00;;;24.60;99.90;;;;;;5036358;28;20547;-79
2023/08/16 07:18:45;;;;;;;8.63;7.60;;;24.60;99.90;;;;;;5026448;28;20472;-79
2023/08/16 07:21:18;;;;;;;8.50;7.70;;;24.70;99.90;;;;;;5036289;28;20759;-79
2023/08/16 07:23:45;;;;;;;8.10;7.43;;;24.80;99.90;;;;;;5034920;28;20958;-79
2023/08/16 07:26:18;;;;;;;7.00;6.50;;;24.80;99.90;;;;;;5025260;28;20567;-78
2023/08/16 07:28:53;;;;;;;7.27;6.77;;;24.90;99.90;;;;;;5033194;28;20464;-79
2023/08/16 07:31:36;;;;;;;7.80;7.20;;;24.90;99.90;;;;;;5035985;28;20476;-78
2023/08/16 07:34:04;;;;;;;7.93;7.30;;;25.00;99.90;;;;;;5036372;28;20515;-79
2023/08/16 07:36:31;;;;;;;7.90;7.20;;;25.00;99.90;;;;;;5036210;28;20543;-79
2023/08/16 07:38:58;;;;;;;8.20;7.40;;;25.10;99.90;;;;;;5035488;28;20524;-79
2023/08/16 07:41:26;;;;;;;6.87;6.47;;;25.10;99.90;;;;;;5036571;28;20472;-80
2023/08/16 07:43:53;;;;;;;7.73;7.10;;;25.10;99.90;;;;;;5036351;28;21067;-81
2023/08/16 07:46:20;;;;;;;7.53;6.83;;;25.20;99.90;;;;;;5035773;28;21047;-81
2023/08/16 07:48:47;;;;;;;7.30;6.67;;;25.30;99.90;;;;;;5035291;28;20555;-80
2023/08/16 07:51:14;;;;;;;7.17;6.63;;;25.30;99.90;;;;;;5034861;28;21025;-79
2023/08/16 07:53:41;;;;;;;6.47;5.87;;;25.40;99.90;;;;;;5035201;28;20464;-78
2023/08/16 07:56:08;;;;;;;7.20;6.50;;;25.40;99.90;;;;;;5034924;28;20505;-79
2023/08/16 07:58:36;;;;;;;7.17;6.47;;;25.40;99.90;;;;;;5035138;28;20564;-79
2023/08/16 08:01:03;;;;;;;6.77;6.23;;;25.50;99.90;;;;;;5034858;28;20501;-81
2023/08/16 08:03:30;;;;;;;6.70;6.20;;;25.50;99.90;;;;;;5035126;28;20476;-79
2023/08/16 08:06:02;;;;;;;7.47;6.87;;;25.50;99.90;;;;;;5034100;28;20975;-81
2023/08/16 08:08:29;;;;;;;7.20;6.70;;;25.50;99.90;;;;;;5035658;28;20480;-79
2023/08/16 08:10:56;;;;;;;8.17;6.67;;;25.50;99.90;;;;;;5034967;28;20558;-79
2023/08/16 08:13:23;;;;;;;6.50;5.63;;;25.60;99.90;;;;;;5035927;28;20468;-80
2023/08/16 08:15:51;;;;;;;5.83;5.43;;;25.60;99.90;;;;;;5034920;28;20546;-80
2023/08/16 08:18:18;;;;;;;6.50;6.00;;;25.60;99.90;;;;;;5035796;28;20464;-79
2023/08/16 08:20:46;;;;;;;8.13;6.30;;;25.60;99.90;;;;;;5034624;28;20472;-80
2023/08/16 08:23:16;;;;;;;6.10;5.70;;;25.60;99.90;;;;;;5033413;28;20460;-82
2023/08/16 08:25:44;;;;;;;5.80;5.30;;;25.60;99.90;;;;;;5050307;28;20941;-82
2023/08/16 08:28:11;;;;;;;5.97;5.47;;;25.60;99.90;;;;;;5038838;28;20829;-81
2023/08/16 08:30:41;;;;;;;4.70;4.40;;;25.50;99.90;;;;;;5054846;28;20475;-79
2023/08/16 08:33:12;;;;;;;5.67;5.27;;;25.50;99.90;;;;;;5054799;28;20975;-79
2023/08/16 08:35:40;;;;;;;6.33;5.83;;;25.50;99.90;;;;;;5054708;28;20546;-79
2023/08/16 08:38:07;;;;;;;6.20;5.80;;;25.50;99.90;;;;;;5059522;28;20467;-79
2023/08/16 08:40:34;;;;;;;5.80;5.40;;;25.50;99.90;;;;;;5056682;28;20471;-78
2023/08/16 08:43:05;;;;;;;6.77;6.07;;;25.50;99.90;;;;;;5032695;28;20480;-80
2023/08/16 08:45:33;;;;;;;6.13;5.63;;;25.50;99.90;;;;;;5042732;28;20471;-82
2023/08/16 08:48:12;;;;;;;9.87;8.97;;;25.50;99.90;;;;;;5051012;28;20471;-83
2023/08/16 08:50:42;;;;;;;14.10;12.70;;;25.50;99.90;;;;;;5035374;28;20469;-82
2023/08/16 08:53:10;;;;;;;19.13;17.43;;;25.40;99.90;;;;;;5035448;28;20484;-79
2023/08/16 08:55:40;;;;;;;20.70;18.80;;;25.40;99.90;;;;;;5035302;28;20500;-82
2023/08/16 08:58:10;;;;;;;24.93;22.60;;;25.40;99.90;;;;;;5049195;28;20468;-81
2023/08/16 09:00:59;;;;;;;25.03;22.73;;;25.40;99.90;;;;;;5053591;28;20471;-79
2023/08/16 09:03:39;;;;;;;24.53;22.23;;;25.50;99.90;;;;;;5046819;28;20497;-80
2023/08/16 09:06:07;;;;;;;26.33;23.87;;;25.50;99.90;;;;;;5054388;28;20467;-81
2023/08/16 09:08:40;;;;;;;26.63;23.83;;;25.50;99.90;;;;;;5052400;28;21003;-82
2023/08/16 09:11:15;;;;;;;16.60;15.10;;;25.40;99.90;;;;;;5054009;28;20521;-80
2023/08/16 09:13:42;;;;;;;6.73;6.13;;;25.50;99.90;;;;;;5053302;28;20520;-79
2023/08/16 09:16:15;;;;;;;4.80;4.40;;;25.50;99.90;;;;;;5053108;28;20463;-82
2023/08/16 09:18:50;;;;;;;5.20;4.90;;;25.60;99.90;;;;;;5053688;28;20471;-80
2023/08/16 09:21:19;;;;;;;4.93;4.50;;;25.60;99.90;;;;;;5054246;28;20467;-80
2023/08/16 09:23:55;;;;;;;6.80;6.23;;;25.70;99.90;;;;;;5042475;28;20475;-82
2023/08/16 09:26:23;;;;;;;5.97;5.37;;;25.70;99.90;;;;;;5053770;28;20471;-83
2023/08/16 09:28:57;;;;;;;5.30;4.90;;;25.80;99.90;;;;;;5053532;28;20467;-82
2023/08/16 09:31:24;;;;;;;5.17;4.77;;;25.80;99.90;;;;;;5054519;28;20962;-81
2023/08/16 09:33:59;;;;;;;6.30;5.90;;;25.80;99.90;;;;;;5053109;28;20482;-82
2023/08/16 09:36:30;;;;;;;4.70;4.30;;;25.80;99.90;;;;;;5054201;28;20542;-83
2023/08/16 09:39:01;;;;;;;4.80;4.30;;;25.90;99.90;;;;;;5053216;28;20455;-82
2023/08/16 09:41:28;;;;;;;7.70;7.17;;;25.90;99.90;;;;;;5054570;28;20556;-83
2023/08/16 09:44:04;;;;;;;12.87;11.57;;;26.00;99.90;;;;;;5053906;28;20531;-83
2023/08/16 09:46:31;;;;;;;16.83;15.43;;;26.00;99.90;;;;;;5054025;28;20559;-83
2023/08/16 09:49:06;;;;;;;16.23;14.83;;;26.00;99.90;;;;;;5052988;28;20462;-81
2023/08/16 09:51:34;;;;;;;14.67;13.30;;;26.10;99.90;;;;;;5053466;28;20472;-80
2023/08/16 09:56:43;;;;;;;6.00;5.60;;;26.20;99.90;;;;;;4223006;26;20468;-79
2023/08/16 09:59:12;;;;;;;6.87;6.37;;;26.30;99.90;;;;;;5040140;28;20462;-82
2023/08/16 10:01:41;;;;;;;6.77;6.27;;;26.40;99.90;;;;;;5054215;28;20489;-82
2023/08/16 10:04:09;;;;;;;10.73;9.83;;;26.50;99.90;;;;;;5055046;28;20472;-82
2023/08/16 10:06:37;;;;;;;10.77;9.77;;;26.50;99.90;;;;;;5055204;28;20474;-81
2023/08/16 10:09:05;;;;;;;13.43;12.27;;;26.60;99.90;;;;;;5055884;28;20493;-80
2023/08/16 10:11:35;;;;;;;12.00;11.00;;;26.60;99.90;;;;;;5054352;28;20935;-82
2023/08/16 10:14:03;;;;;;;7.47;6.23;;;26.60;99.90;;;;;;5057245;28;20473;-82
2023/08/16 10:16:32;;;;;;;6.23;5.83;;;26.60;99.90;;;;;;5059712;28;20470;-82
2023/08/16 10:19:02;;;;;;;5.50;5.10;;;26.70;99.90;;;;;;5062245;28;20962;-79
2023/08/16 10:21:37;;;;;;;5.00;4.53;;;26.80;99.90;;;;;;5064555;28;20473;-81
2023/08/16 10:24:10;;;;;;;6.40;5.90;;;26.80;99.90;;;;;;5063423;28;20467;-81
2023/08/16 10:26:39;;;;;;;5.93;5.43;;;26.80;99.90;;;;;;5061356;28;20481;-81
2023/08/16 10:29:36;;;;;;;8.63;7.93;;;26.70;99.90;;;;;;5060141;28;20524;-81
2023/08/16 10:32:07;;;;;;;9.70;8.93;;;26.70;99.90;;;;;;5057030;28;20458;-80
2023/08/16 10:34:35;;;;;;;5.47;5.00;;;26.60;99.90;;;;;;5060117;28;20474;-81
2023/08/16 10:37:05;;;;;;;5.10;4.70;;;26.60;99.90;;;;;;5059479;28;20823;-79
2023/08/16 10:39:32;;;;;;;8.57;7.87;;;26.60;99.90;;;;;;5060124;28;20464;-79
2023/08/16 10:42:06;;;;;;;9.10;8.43;;;26.60;99.90;;;;;;5059704;28;20949;-80
2023/08/16 10:44:35;;;;;;;11.50;10.60;;;26.60;99.90;;;;;;5059760;28;20563;-79
2023/08/16 10:47:02;;;;;;;13.90;12.80;;;26.60;99.90;;;;;;5056557;28;20467;-81
2023/08/16 10:49:41;;;;;;;13.63;12.30;;;26.50;99.90;;;;;;5056624;28;20469;-82
2023/08/16 10:52:09;;;;;;;13.47;12.37;;;26.50;99.90;;;;;;5056062;28;20462;-80
2023/08/16 10:54:37;;;;;;;13.67;12.50;;;26.40;99.90;;;;;;5058047;28;20488;-81
2023/08/16 10:57:05;;;;;;;5.70;5.27;;;26.40;99.90;;;;;;5056428;28;20996;-80
2023/08/16 10:59:39;;;;;;;4.80;4.43;;;26.40;99.90;;;;;;5057263;28;20469;-81
2023/08/16 11:02:15;;;;;;;9.70;8.97;;;26.50;99.90;;;;;;5057070;28;20460;-80
2023/08/16 11:04:43;;;;;;;8.60;7.80;;;26.50;99.90;;;;;;5056879;28;20473;-80
2023/08/16 11:07:12;;;;;;;6.13;5.60;;;26.50;99.90;;;;;;5057011;28;20461;-84
2023/08/16 11:09:39;;;;;;;6.60;6.10;;;26.60;99.90;;;;;;5058747;28;20496;-81
2023/08/16 11:12:07;;;;;;;6.37;5.77;;;26.60;99.90;;;;;;5056365;28;20474;-80
2023/08/16 11:14:35;;;;;;;5.90;5.50;;;26.70;99.90;;;;;;5057045;28;20555;-82
2023/08/16 11:17:08;;;;;;;7.13;6.53;;;26.80;99.90;;;;;;5053948;28;20470;-81
2023/08/16 11:19:36;;;;;;;8.37;7.70;;;26.80;99.90;;;;;;5055198;28;20931;-81
2023/08/16 11:22:05;;;;;;;7.37;6.77;;;26.90;99.90;;;;;;5054938;28;20475;-81
2023/08/16 11:24:35;;;;;;;5.93;5.10;;;26.90;99.90;;;;;;5055121;28;20470;-80
2023/08/16 11:27:06;;;;;;;7.60;7.10;;;27.00;99.90;;;;;;5054823;28;20976;-82
2023/08/16 11:29:34;;;;;;;9.30;8.50;;;27.10;99.90;;;;;;5055742;28;20470;-81
2023/08/16 11:32:01;;;;;;;10.27;9.47;;;27.10;99.90;;;;;;5055841;28;20964;-83
2023/08/16 11:34:32;;;;;;;7.47;6.87;;;27.10;99.90;;;;;;5056068;28;20565;-83
2023/08/16 11:36:59;;;;;;;6.90;6.30;;;27.10;99.90;;;;;;5054276;28;20501;-83
2023/08/16 11:39:27;;;;;;;6.60;6.07;;;27.10;99.90;;;;;;5057893;28;20832;-83
2023/08/16 11:41:56;;;;;;;6.30;5.80;;;27.20;99.90;;;;;;5056765;28;20472;-81
2023/08/16 11:44:24;;;;;;;5.30;4.90;;;27.10;99.90;;;;;;5056702;28;20497;-80
2023/08/16 11:47:11;;;;;;;6.27;5.87;;;27.20;99.90;;;;;;5046167;28;20470;-82
2023/08/16 11:49:39;;;;;;;5.57;4.03;;;27.20;99.90;;;;;;5056360;28;20509;-83
2023/08/16 11:52:09;;;;;;;4.03;3.73;;;27.20;99.90;;;;;;5056331;28;20538;-81
2023/08/16 11:54:37;;;;;;;5.23;4.73;;;27.20;99.90;;;;;;5056443;28;20482;-82
2023/08/16 11:57:16;;;;;;;4.67;4.27;;;27.20;99.90;;;;;;5056974;28;20481;-83
2023/08/16 12:00:10;;;;;;;5.57;3.80;;;27.20;99.90;;;;;;5046313;28;20492;-83
2023/08/16 12:02:38;;;;;;;5.73;4.80;;;27.20;99.90;;;;;;5055484;28;20483;-82
2023/08/16 12:05:11;;;;;;;4.40;4.10;;;27.20;99.90;;;;;;5046809;28;20478;-83
2023/08/16 12:07:46;;;;;;;6.10;4.30;;;27.20;99.90;;;;;;5047514;28;20577;-83
2023/08/16 12:10:23;;;;;;;4.47;4.17;;;27.20;99.90;;;;;;5057247;28;20466;-83
2023/08/16 12:12:56;;;;;;;5.77;5.07;;;27.20;99.90;;;;;;5057174;28;20474;-83
2023/08/16 12:15:26;;;;;;;4.93;4.40;;;27.20;99.90;;;;;;5057773;28;20506;-82
2023/08/16 12:17:55;;;;;;;5.63;5.17;;;27.20;99.90;;;;;;5056421;28;20975;-83
2023/08/16 12:20:24;;;;;;;6.20;5.80;;;27.30;99.90;;;;;;5056717;28;20546;-81
2023/08/16 12:22:54;;;;;;;5.47;4.97;;;27.30;99.90;;;;;;5057033;28;20544;-80
2023/08/16 12:25:24;;;;;;;4.67;4.30;;;27.30;99.90;;;;;;5055797;28;20828;-82
2023/08/16 12:27:51;;;;;;;5.37;4.97;;;27.30;99.90;;;;;;5057020;28;20471;-82
2023/08/16 12:30:22;;;;;;;6.63;6.13;;;27.40;99.90;;;;;;5056915;28;20841;-81
2023/08/16 12:32:54;;;;;;;5.73;5.23;;;27.40;99.90;;;;;;5056363;28;20478;-82
2023/08/16 12:35:24;;;;;;;6.17;5.57;;;27.40;99.90;;;;;;5055860;28;20542;-82
2023/08/16 12:37:51;;;;;;;7.73;5.80;;;27.40;99.90;;;;;;5057718;28;20538;-81
2023/08/16 12:40:18;;;;;;;6.90;6.40;;;27.40;99.90;;;;;;5058465;28;20489;-81
2023/08/16 12:42:45;;;;;;;7.50;6.87;;;27.40;99.90;;;;;;5058277;28;20991;-81
2023/08/16 12:45:12;;;;;;;7.17;6.57;;;27.40;99.90;;;;;;5058505;28;20459;-80
2023/08/16 12:47:42;;;;;;;7.67;7.07;;;27.40;99.90;;;;;;5058635;28;21028;-80
2023/08/16 12:50:10;;;;;;;8.30;7.50;;;27.40;99.90;;;;;;5058397;28;20848;-81
2023/08/16 12:52:37;;;;;;;7.13;6.63;;;27.30;99.90;;;;;;5059269;28;20469;-83
2023/08/16 12:55:04;;;;;;;5.23;4.73;;;27.30;99.90;;;;;;5058085;28;20478;-82
2023/08/16 12:57:31;;;;;;;5.00;4.67;;;27.20;99.90;;;;;;5057180;28;20482;-82